createdAt,value
2023-04-14T00:01:34.438Z,32.02
2023-04-14T00:06:39.713Z,31.45
2023-04-14T00:11:43.440Z,31.60
2023-04-14T00:16:47.172Z,31.76
2023-04-14T00:21:52.522Z,31.66
2023-04-14T00:26:56.228Z,31.87
2023-04-14T00:31:59.852Z,31.25
2023-04-14T00:37:05.139Z,31.84
2023-04-14T00:42:08.768Z,32.08
2023-04-14T00:47:12.584Z,32.44
2023-04-14T00:52:17.938Z,32.46
2023-04-14T00:57:21.734Z,31.75
2023-04-14T01:02:26.866Z,32.41
2023-04-14T01:07:33.299Z,32.42
2023-04-14T01:12:56.086Z,32.03
2023-04-14T01:18:06.201Z,33.11
2023-04-14T01:23:16.629Z,33.34
2023-04-14T01:28:38.386Z,33.82
2023-04-14T01:33:49.544Z,33.71
2023-04-14T01:38:55.487Z,34.59
2023-04-14T01:44:02.469Z,34.39
2023-04-14T01:49:09.372Z,34.17
2023-04-14T01:54:13.978Z,34.55
2023-04-14T01:59:19.862Z,35.03
2023-04-14T02:04:29.432Z,36.43
2023-04-14T02:09:34.936Z,36.94
2023-04-14T02:14:41.586Z,36.91
2023-04-14T02:19:48.569Z,37.68
2023-04-14T02:24:52.272Z,38.03
2023-04-14T02:29:57.411Z,38.75
2023-04-14T02:35:07.140Z,39.61
2023-04-14T02:40:16.261Z,39.76
2023-04-14T02:45:23.884Z,40.20
2023-04-14T02:50:31.303Z,40.60
2023-04-14T02:55:35.655Z,40.77
2023-04-14T03:00:40.860Z,41.45
2023-04-14T03:05:48.849Z,42.65
2023-04-14T03:10:55.182Z,42.17
2023-04-14T03:15:59.302Z,42.50
2023-04-14T03:21:06.041Z,43.14
2023-04-14T03:26:10.667Z,43.75
2023-04-14T03:31:15.812Z,44.44
2023-04-14T03:36:22.063Z,44.52
2023-04-14T03:41:26.886Z,45.02
2023-04-14T03:46:30.576Z,44.80
2023-04-14T03:51:36.900Z,44.91
2023-04-14T03:56:41.746Z,45.03
2023-04-14T04:01:47.252Z,44.79
2023-04-14T04:06:53.496Z,45.75
2023-04-14T04:11:58.679Z,45.10
2023-04-14T04:17:06.632Z,46.24
2023-04-14T04:22:15.265Z,45.90
2023-04-14T04:27:27.767Z,45.90
2023-04-14T04:32:32.236Z,45.87
2023-04-14T04:37:38.567Z,46.89
2023-04-14T04:42:42.767Z,46.74
2023-04-14T04:47:46.488Z,46.90
2023-04-14T04:52:51.760Z,46.98
2023-04-14T04:57:55.372Z,47.33
2023-04-14T05:02:59.237Z,46.82
2023-04-14T05:08:05.004Z,47.71
2023-04-14T05:13:08.654Z,47.53
2023-04-14T05:18:12.413Z,47.67
2023-04-14T05:23:17.695Z,47.70
2023-04-14T05:28:21.309Z,47.52
2023-04-14T05:33:24.929Z,48.02
2023-04-14T05:38:30.244Z,49.07
2023-04-14T05:43:33.822Z,48.76
2023-04-14T05:48:37.432Z,48.81
2023-04-14T05:53:42.741Z,50.00
2023-04-14T05:58:46.379Z,49.75
2023-04-14T06:03:50.212Z,49.48
2023-04-14T06:08:55.710Z,49.69
2023-04-14T06:13:59.831Z,49.87
2023-04-14T06:19:03.842Z,49.83
2023-04-14T06:24:10.907Z,50.25
2023-04-14T06:29:14.588Z,50.51
2023-04-14T06:34:18.210Z,50.31
2023-04-14T06:39:23.532Z,50.46
2023-04-14T06:44:27.864Z,49.86
2023-04-14T06:49:31.498Z,50.47
2023-04-14T06:54:36.706Z,49.54
2023-04-14T06:59:41.019Z,49.50
2023-04-14T07:04:44.729Z,49.56
2023-04-14T07:09:50.043Z,50.13
2023-04-14T07:14:53.749Z,50.17
2023-04-14T07:19:57.405Z,50.79
2023-04-14T07:25:03.592Z,51.84
2023-04-14T07:30:07.018Z,53.95
2023-04-14T07:35:11.576Z,53.52
2023-04-14T07:40:17.024Z,54.87
2023-04-14T07:45:20.680Z,54.65
2023-04-14T07:50:24.399Z,53.61
2023-04-14T07:55:29.713Z,53.86
2023-04-14T08:00:33.343Z,53.96
2023-04-14T08:05:37.103Z,54.91
2023-04-14T08:10:42.458Z,55.53
2023-04-14T08:15:46.776Z,54.63
2023-04-14T08:20:50.407Z,54.60
2023-04-14T08:25:55.641Z,55.69
2023-04-14T08:30:59.395Z,56.01
2023-04-14T08:36:03.063Z,57.16
2023-04-14T08:41:09.551Z,58.63
2023-04-14T08:46:15.036Z,58.02
2023-04-14T08:51:31.092Z,59.45
2023-04-14T08:56:39.055Z,58.58
2023-04-14T09:01:42.731Z,57.98
2023-04-14T09:06:46.604Z,58.25
2023-04-14T09:11:53.150Z,57.91
2023-04-14T09:16:57.212Z,57.75
2023-04-14T09:22:01.080Z,57.44
2023-04-14T09:27:06.999Z,58.45
2023-04-14T09:32:10.616Z,58.16
2023-04-14T09:37:14.226Z,58.49
2023-04-14T09:42:19.952Z,58.91
2023-04-14T09:47:24.432Z,59.56
2023-04-14T09:52:41.538Z,59.70
2023-04-14T09:57:48.006Z,58.95
2023-04-14T10:02:53.354Z,58.87
2023-04-14T10:08:02.310Z,59.00
2023-04-14T10:13:07.641Z,59.84
2023-04-14T10:18:11.336Z,60.04
2023-04-14T10:23:16.028Z,60.71
2023-04-14T10:28:22.134Z,62.21
2023-04-14T10:33:26.060Z,62.51
2023-04-14T10:38:43.319Z,64.84
2023-04-14T10:43:48.725Z,63.80
2023-04-14T10:48:53.844Z,63.40
2023-04-14T10:53:57.547Z,63.33
2023-04-14T10:59:04.099Z,63.47
2023-04-14T11:04:18.881Z,64.49
2023-04-14T11:09:34.846Z,63.61
2023-04-14T11:14:40.221Z,63.50
2023-04-14T11:19:43.940Z,64.39
2023-04-14T11:24:47.847Z,63.97
2023-04-14T11:29:55.846Z,64.53
2023-04-14T11:35:09.750Z,64.35
2023-04-14T11:40:15.012Z,64.54
2023-04-14T11:45:20.520Z,65.24
2023-04-14T11:50:24.296Z,64.76
2023-04-14T11:55:28.553Z,64.68
2023-04-14T12:00:34.035Z,65.03
2023-04-14T12:05:38.379Z,65.45
2023-04-14T12:10:42.631Z,65.53
2023-04-14T12:15:48.217Z,66.17
2023-04-14T12:20:55.130Z,66.27
2023-04-14T12:25:58.787Z,65.76
2023-04-14T12:31:05.391Z,66.79
2023-04-14T12:36:14.343Z,67.08
2023-04-14T12:41:23.556Z,66.66
2023-04-14T12:46:29.689Z,67.23
2023-04-14T12:51:40.158Z,66.84
2023-04-14T12:56:43.758Z,66.61
2023-04-14T13:01:49.164Z,66.20
2023-04-14T13:06:52.785Z,66.18
2023-04-14T13:11:56.401Z,66.92
2023-04-14T13:17:01.708Z,67.64
2023-04-14T13:22:05.341Z,67.00
2023-04-14T13:27:09.011Z,67.33
2023-04-14T13:32:14.496Z,68.58
2023-04-14T13:37:18.118Z,67.47
2023-04-14T13:42:21.718Z,67.23
2023-04-14T13:47:27.074Z,67.31
2023-04-14T13:52:30.691Z,67.68
2023-04-14T13:57:34.421Z,67.81
2023-04-14T14:02:40.583Z,67.73
2023-04-14T14:07:44.620Z,67.60
2023-04-14T14:12:48.240Z,68.10
2023-04-14T14:17:53.602Z,68.53
2023-04-14T14:22:57.322Z,67.91
2023-04-14T14:28:00.946Z,67.82
2023-04-14T14:33:07.252Z,66.55
2023-04-14T14:38:10.155Z,68.22
2023-04-14T14:43:14.939Z,66.24
2023-04-14T14:48:20.225Z,65.10
2023-04-14T14:53:23.866Z,62.04
2023-04-14T14:58:27.517Z,60.33
2023-04-14T15:03:32.997Z,59.58
2023-04-14T15:08:36.712Z,57.60
2023-04-14T15:13:40.365Z,56.09
2023-04-14T15:18:45.651Z,54.76
2023-04-14T15:23:49.304Z,53.77
2023-04-14T15:28:52.931Z,52.01
2023-04-14T15:33:58.892Z,48.66
2023-04-14T15:39:02.558Z,48.61
2023-04-14T15:44:06.341Z,47.39
2023-04-14T15:49:11.600Z,46.03
2023-04-14T15:54:15.234Z,46.70
2023-04-14T15:59:18.941Z,46.92
2023-04-14T16:04:24.354Z,43.86
2023-04-14T16:09:28.154Z,44.02
2023-04-14T16:14:32.657Z,44.24
2023-04-14T16:19:38.061Z,43.25
2023-04-14T16:24:41.799Z,44.04
2023-04-14T16:29:45.403Z,43.92
2023-04-14T16:34:50.902Z,42.09
2023-04-14T16:39:57.854Z,44.32
2023-04-14T16:45:01.544Z,43.72
2023-04-14T16:50:07.720Z,42.15
2023-04-14T16:55:12.190Z,42.36
2023-04-14T17:00:16.555Z,42.74
2023-04-14T17:05:22.156Z,43.67
2023-04-14T17:10:26.782Z,44.04
2023-04-14T17:15:30.443Z,42.44
2023-04-14T17:20:35.705Z,43.74
2023-04-14T17:25:39.353Z,42.65
2023-04-14T17:30:43.038Z,45.09
2023-04-14T17:35:49.416Z,44.84
2023-04-14T17:40:54.361Z,45.62
2023-04-14T17:45:58.161Z,44.50
2023-04-14T17:51:04.228Z,44.26
2023-04-14T17:56:09.348Z,43.60
2023-04-14T18:01:15.426Z,43.72
2023-04-14T18:06:20.686Z,42.55
2023-04-14T18:11:24.480Z,42.13
2023-04-14T18:16:28.220Z,41.95
2023-04-14T18:21:33.473Z,43.02
2023-04-14T18:26:37.102Z,43.13
2023-04-14T18:31:40.813Z,42.39
2023-04-14T18:36:46.148Z,41.05
2023-04-14T18:41:49.826Z,42.32
2023-04-14T18:46:53.513Z,41.75
2023-04-14T18:51:58.834Z,39.84
2023-04-14T18:57:02.449Z,40.75
2023-04-14T19:02:06.194Z,40.14
2023-04-14T19:07:11.624Z,40.14
2023-04-14T19:12:25.418Z,40.72
2023-04-14T19:17:34.506Z,41.26
2023-04-14T19:22:40.549Z,40.91
2023-04-14T19:27:44.185Z,40.31
2023-04-14T19:32:47.821Z,40.20
2023-04-14T19:37:53.090Z,41.96
2023-04-14T19:42:57.470Z,41.38
2023-04-14T19:48:09.904Z,41.62
2023-04-14T19:53:25.569Z,42.07
2023-04-14T19:58:29.334Z,41.99
2023-04-14T20:03:34.476Z,41.28
2023-04-14T20:08:39.624Z,41.46
2023-04-14T20:13:43.454Z,41.74
2023-04-14T20:18:47.053Z,40.76
2023-04-14T20:23:52.372Z,40.74
2023-04-14T20:28:56.069Z,40.09
2023-04-14T20:33:59.731Z,41.01
2023-04-14T20:39:05.916Z,40.79
2023-04-14T20:44:09.741Z,41.88
2023-04-14T20:49:13.365Z,41.82
2023-04-14T20:54:18.957Z,41.24
2023-04-14T20:59:22.570Z,42.04
2023-04-14T21:04:26.284Z,42.44
2023-04-14T21:09:31.550Z,42.16
2023-04-14T21:15:40.642Z,41.18
2023-04-14T21:19:58.822Z,41.72
2023-04-14T21:25:04.197Z,42.36
2023-04-14T21:30:08.951Z,40.79
2023-04-14T21:35:12.620Z,42.15
2023-04-14T21:40:17.889Z,40.43
2023-04-14T21:45:21.475Z,40.14
2023-04-14T21:50:25.081Z,41.44
2023-04-14T21:55:30.617Z,40.83
2023-04-14T22:00:34.264Z,40.97
2023-04-14T22:05:37.889Z,41.76
2023-04-14T22:10:44.133Z,40.55
2023-04-14T22:15:47.879Z,40.20
2023-04-14T22:20:51.543Z,39.33
2023-04-14T22:25:56.809Z,40.92
2023-04-14T22:31:00.453Z,41.45
2023-04-14T22:36:06.493Z,40.87
2023-04-14T22:41:11.767Z,40.81
2023-04-14T22:46:17.428Z,40.67
2023-04-14T22:51:21.062Z,41.54
2023-04-14T22:56:27.140Z,40.47
2023-04-14T23:01:30.802Z,40.96
2023-04-14T23:06:35.319Z,40.89
2023-04-14T23:11:40.812Z,41.65
2023-04-14T23:16:44.579Z,40.01
2023-04-14T23:21:49.715Z,39.46
2023-04-14T23:26:56.535Z,39.70
2023-04-14T23:32:00.169Z,39.55
2023-04-14T23:37:03.893Z,40.16
2023-04-14T23:42:09.179Z,40.49
2023-04-14T23:47:12.840Z,39.80
2023-04-14T23:52:16.577Z,40.23
2023-04-14T23:57:22.291Z,39.99
